TRA6C LOWS-EHEH
Flight info
| Callsign | TRA6C |
|---|---|
| Flight time | 1h 7m |
| Altitude | 38000 |
| Route | INROM DCT SIMBA Y700 NENUM DCT EPTEU L604 GASKA DCT MAPOX DCT BIGGE DCT DOMEG DCT ROTEK |
| Aircraft | B738/M-SDE2E3FGHIRWXY/LB1 |
Departure
| Time | 2026-05-05 23:13 |
|---|---|
| Airport | Salzburg Airport (LOWS) |
Arrival
| Time | 2026-05-06 00:20 |
|---|---|
| Airport | Eindhoven Airport (EHEH) |
| Time | Latitude | Longitude | Altitude | Speed | Heading |
|---|---|---|---|---|---|
| 2026-05-05 22:47 | 47.79168 | 12.99888 | 1419 ft | 0 kts | 282° |
| 2026-05-05 23:04 | 47.79166 | 12.99903 | 1419 ft | 4 kts | 282° |
| 2026-05-05 23:05 | 47.79160 | 12.99942 | 1419 ft | 4 kts | 283° |
| 2026-05-05 23:05 | 47.79154 | 12.99981 | 1419 ft | 4 kts | 286° |
| 2026-05-05 23:05 | 47.79145 | 13.00018 | 1419 ft | 4 kts | 299° |
| 2026-05-05 23:05 | 47.79130 | 13.00045 | 1419 ft | 2 kts | 336° |
| 2026-05-05 23:06 | 47.79129 | 13.00046 | 1419 ft | 1 kts | 337° |
| 2026-05-05 23:08 | 47.79136 | 13.00042 | 1419 ft | 3 kts | 337° |
| 2026-05-05 23:08 | 47.79178 | 13.00014 | 1419 ft | 10 kts | 337° |
| 2026-05-05 23:08 | 47.79257 | 12.99963 | 1419 ft | 11 kts | 336° |
| 2026-05-05 23:08 | 47.79321 | 12.99965 | 1419 ft | 10 kts | 40° |
| 2026-05-05 23:09 | 47.79353 | 13.00051 | 1419 ft | 9 kts | 62° |
| 2026-05-05 23:09 | 47.79409 | 13.00078 | 1419 ft | 10 kts | 345° |
| 2026-05-05 23:09 | 47.79477 | 13.00036 | 1419 ft | 12 kts | 337° |
| 2026-05-05 23:09 | 47.79559 | 12.99984 | 1419 ft | 14 kts | 337° |
| 2026-05-05 23:10 | 47.79657 | 12.99923 | 1419 ft | 16 kts | 337° |
| 2026-05-05 23:10 | 47.79768 | 12.99853 | 1419 ft | 18 kts | 336° |
| 2026-05-05 23:10 | 47.79889 | 12.99777 | 1419 ft | 20 kts | 336° |
| 2026-05-05 23:10 | 47.80016 | 12.99694 | 1419 ft | 20 kts | 336° |
| 2026-05-05 23:11 | 47.80134 | 12.99619 | 1419 ft | 18 kts | 337° |
| 2026-05-05 23:11 | 47.80207 | 12.99592 | 1419 ft | 8 kts | 1° |
| 2026-05-05 23:11 | 47.80257 | 12.99631 | 1420 ft | 9 kts | 46° |
| 2026-05-05 23:11 | 47.80289 | 12.99730 | 1420 ft | 12 kts | 68° |
| 2026-05-05 23:12 | 47.80266 | 12.99803 | 1419 ft | 1 kts | 156° |
| 2026-05-05 23:12 | 47.80265 | 12.99803 | 1419 ft | 1 kts | 156° |
| 2026-05-05 23:12 | 47.80159 | 12.99871 | 1420 ft | 47 kts | 157° |
| 2026-05-05 23:12 | 47.79630 | 13.00206 | 1421 ft | 115 kts | 156° |
| 2026-05-05 23:13 | 47.78714 | 13.00784 | 1449 ft | 166 kts | 157° |
| 2026-05-05 23:13 | 47.77616 | 13.01465 | 2013 ft | 173 kts | 158° |
| 2026-05-05 23:13 | 47.76484 | 13.02159 | 2725 ft | 177 kts | 160° |
| 2026-05-05 23:13 | 47.75348 | 13.02933 | 3336 ft | 183 kts | 158° |
| 2026-05-05 23:14 | 47.74262 | 13.03921 | 3995 ft | 190 kts | 134° |
| 2026-05-05 23:14 | 47.73852 | 13.05103 | 4368 ft | 195 kts | 97° |
| 2026-05-05 23:14 | 47.74160 | 13.07019 | 4967 ft | 194 kts | 45° |
| 2026-05-05 23:14 | 47.75300 | 13.07885 | 5576 ft | 187 kts | 355° |
| 2026-05-05 23:15 | 47.76536 | 13.07532 | 6326 ft | 179 kts | 348° |
| 2026-05-05 23:15 | 47.77819 | 13.07695 | 6884 ft | 192 kts | 8° |
| 2026-05-05 23:15 | 47.79120 | 13.07692 | 7496 ft | 188 kts | 332° |
| 2026-05-05 23:15 | 47.80244 | 13.06769 | 8138 ft | 191 kts | 326° |
| 2026-05-05 23:16 | 47.81491 | 13.05805 | 8340 ft | 214 kts | 329° |
| 2026-05-05 23:16 | 47.82919 | 13.04830 | 8523 ft | 237 kts | 332° |
| 2026-05-05 23:16 | 47.84522 | 13.03878 | 8754 ft | 257 kts | 335° |
| 2026-05-05 23:16 | 47.86308 | 13.02998 | 8984 ft | 286 kts | 347° |
| 2026-05-05 23:17 | 47.88322 | 13.03370 | 9647 ft | 305 kts | 22° |
| 2026-05-05 23:17 | 47.90080 | 13.05187 | 10380 ft | 314 kts | 39° |
| 2026-05-05 23:17 | 47.91787 | 13.07417 | 10609 ft | 339 kts | 40° |
| 2026-05-05 23:17 | 47.93628 | 13.09801 | 10853 ft | 361 kts | 39° |
| 2026-05-05 23:18 | 47.95588 | 13.12228 | 11461 ft | 369 kts | 38° |
| 2026-05-05 23:18 | 47.97590 | 13.14646 | 12261 ft | 371 kts | 37° |
| 2026-05-05 23:18 | 47.99827 | 13.16542 | 13070 ft | 372 kts | 16° |
| 2026-05-05 23:18 | 48.02334 | 13.17044 | 13884 ft | 370 kts | 355° |
| 2026-05-05 23:19 | 48.04852 | 13.16299 | 14568 ft | 371 kts | 335° |
| 2026-05-05 23:19 | 48.07194 | 13.14555 | 15309 ft | 373 kts | 328° |
| 2026-05-05 23:19 | 48.09480 | 13.12660 | 16034 ft | 377 kts | 328° |
| 2026-05-05 23:19 | 48.11784 | 13.10734 | 16773 ft | 382 kts | 327° |
| 2026-05-05 23:20 | 48.14089 | 13.08826 | 17504 ft | 386 kts | 327° |
| 2026-05-05 23:20 | 48.16458 | 13.06893 | 18210 ft | 391 kts | 328° |
| 2026-05-05 23:20 | 48.18896 | 13.04918 | 18808 ft | 395 kts | 327° |
| 2026-05-05 23:20 | 48.21290 | 13.03000 | 19404 ft | 400 kts | 329° |
| 2026-05-05 23:21 | 48.23942 | 13.01439 | 20004 ft | 410 kts | 340° |
| 2026-05-05 23:21 | 48.26764 | 13.00588 | 20596 ft | 418 kts | 347° |
| 2026-05-05 23:21 | 48.29667 | 12.99978 | 21172 ft | 423 kts | 348° |
| 2026-05-05 23:21 | 48.32597 | 12.99398 | 21722 ft | 427 kts | 348° |
| 2026-05-05 23:22 | 48.35521 | 12.98808 | 22290 ft | 432 kts | 348° |
| 2026-05-05 23:22 | 48.38553 | 12.98173 | 22780 ft | 438 kts | 348° |
| 2026-05-05 23:22 | 48.41591 | 12.97517 | 23293 ft | 442 kts | 347° |
| 2026-05-05 23:22 | 48.44646 | 12.96846 | 23771 ft | 446 kts | 347° |
| 2026-05-05 23:23 | 48.47722 | 12.96167 | 24268 ft | 448 kts | 347° |
| 2026-05-05 23:23 | 48.50801 | 12.95485 | 24731 ft | 451 kts | 347° |
| 2026-05-05 23:23 | 48.53920 | 12.94795 | 25182 ft | 454 kts | 348° |
| 2026-05-05 23:23 | 48.57053 | 12.94106 | 25610 ft | 457 kts | 348° |
| 2026-05-05 23:24 | 48.60218 | 12.93417 | 26009 ft | 461 kts | 348° |
| 2026-05-05 23:24 | 48.63410 | 12.92723 | 26408 ft | 465 kts | 348° |
| 2026-05-05 23:24 | 48.66622 | 12.92024 | 26824 ft | 468 kts | 348° |
| 2026-05-05 23:24 | 48.69850 | 12.91321 | 27226 ft | 471 kts | 348° |
| 2026-05-05 23:25 | 48.73097 | 12.90612 | 27619 ft | 473 kts | 348° |
| 2026-05-05 23:25 | 48.76331 | 12.89905 | 27990 ft | 476 kts | 348° |
| 2026-05-05 23:25 | 48.79617 | 12.89185 | 28361 ft | 479 kts | 348° |
| 2026-05-05 23:25 | 48.82971 | 12.88448 | 28726 ft | 483 kts | 348° |
| 2026-05-05 23:26 | 48.86309 | 12.87714 | 29050 ft | 486 kts | 348° |
| 2026-05-05 23:26 | 48.89619 | 12.86985 | 29388 ft | 489 kts | 348° |
| 2026-05-05 23:26 | 48.92996 | 12.86241 | 29742 ft | 491 kts | 348° |
| 2026-05-05 23:26 | 48.96376 | 12.85496 | 30048 ft | 494 kts | 348° |
| 2026-05-05 23:27 | 48.99789 | 12.84742 | 30345 ft | 495 kts | 348° |
| 2026-05-05 23:27 | 49.03199 | 12.83988 | 30764 ft | 494 kts | 348° |
| 2026-05-05 23:27 | 49.06591 | 12.83237 | 31223 ft | 491 kts | 348° |
| 2026-05-05 23:27 | 49.09963 | 12.82490 | 31655 ft | 490 kts | 348° |
| 2026-05-05 23:28 | 49.13285 | 12.81441 | 32009 ft | 485 kts | 338° |
| 2026-05-05 23:28 | 49.16397 | 12.79398 | 32368 ft | 478 kts | 326° |
| 2026-05-05 23:28 | 49.19110 | 12.76667 | 32776 ft | 470 kts | 316° |
| 2026-05-05 23:28 | 49.21464 | 12.73270 | 33214 ft | 462 kts | 309° |
| 2026-05-05 23:29 | 49.23671 | 12.69715 | 33615 ft | 460 kts | 308° |
| 2026-05-05 23:29 | 49.25876 | 12.66162 | 33946 ft | 461 kts | 309° |
| 2026-05-05 23:29 | 49.28137 | 12.62595 | 34238 ft | 461 kts | 309° |
| 2026-05-05 23:29 | 49.30392 | 12.59081 | 34442 ft | 464 kts | 310° |
| 2026-05-05 23:30 | 49.32511 | 12.55365 | 34658 ft | 460 kts | 301° |
| 2026-05-05 23:30 | 49.34199 | 12.51254 | 34993 ft | 453 kts | 292° |
| 2026-05-05 23:30 | 49.35439 | 12.46851 | 35267 ft | 448 kts | 285° |
| 2026-05-05 23:30 | 49.36474 | 12.42356 | 35548 ft | 447 kts | 284° |
| 2026-05-05 23:31 | 49.37492 | 12.37852 | 35810 ft | 447 kts | 284° |
| 2026-05-05 23:31 | 49.38512 | 12.33356 | 36084 ft | 446 kts | 284° |
| 2026-05-05 23:31 | 49.39545 | 12.28859 | 36364 ft | 446 kts | 284° |
| 2026-05-05 23:31 | 49.40584 | 12.24377 | 36630 ft | 446 kts | 285° |
| 2026-05-05 23:32 | 49.41627 | 12.19898 | 36895 ft | 446 kts | 285° |
| 2026-05-05 23:32 | 49.42670 | 12.15422 | 37164 ft | 445 kts | 285° |
| 2026-05-05 23:32 | 49.43713 | 12.10940 | 37409 ft | 446 kts | 285° |
| 2026-05-05 23:32 | 49.44759 | 12.06430 | 37530 ft | 449 kts | 285° |
| 2026-05-05 23:33 | 49.45807 | 12.01908 | 37767 ft | 449 kts | 285° |
| 2026-05-05 23:33 | 49.46854 | 11.97377 | 37814 ft | 452 kts | 285° |
| 2026-05-05 23:33 | 49.48963 | 11.88258 | 37819 ft | 452 kts | 285° |
| 2026-05-05 23:34 | 49.51064 | 11.79219 | 37817 ft | 445 kts | 285° |
| 2026-05-05 23:34 | 49.53134 | 11.70250 | 37853 ft | 444 kts | 285° |
| 2026-05-05 23:35 | 49.55197 | 11.61271 | 37833 ft | 445 kts | 285° |
| 2026-05-05 23:35 | 49.57993 | 11.52776 | 37829 ft | 454 kts | 302° |
| 2026-05-05 23:36 | 49.62325 | 11.45570 | 37829 ft | 461 kts | 311° |
| 2026-05-05 23:36 | 49.66846 | 11.38527 | 37826 ft | 462 kts | 310° |
| 2026-05-05 23:37 | 49.71335 | 11.31381 | 37827 ft | 464 kts | 310° |
| 2026-05-05 23:37 | 49.75837 | 11.24200 | 37834 ft | 466 kts | 310° |
| 2026-05-05 23:38 | 49.80344 | 11.16974 | 37822 ft | 467 kts | 310° |
| 2026-05-05 23:38 | 49.84839 | 11.09715 | 37814 ft | 467 kts | 310° |
| 2026-05-05 23:39 | 49.89333 | 11.02448 | 37821 ft | 467 kts | 310° |
| 2026-05-05 23:39 | 49.93824 | 10.95177 | 37835 ft | 466 kts | 310° |
| 2026-05-05 23:40 | 49.98305 | 10.87902 | 37822 ft | 466 kts | 310° |
| 2026-05-05 23:40 | 50.02771 | 10.80629 | 37812 ft | 465 kts | 310° |
| 2026-05-05 23:41 | 50.07223 | 10.73359 | 37809 ft | 463 kts | 310° |
| 2026-05-05 23:41 | 50.11670 | 10.66109 | 37811 ft | 462 kts | 310° |
| 2026-05-05 23:42 | 50.16108 | 10.58874 | 37832 ft | 462 kts | 310° |
| 2026-05-05 23:42 | 50.20509 | 10.51580 | 37815 ft | 461 kts | 310° |
| 2026-05-05 23:43 | 50.24917 | 10.44295 | 37808 ft | 462 kts | 311° |
| 2026-05-05 23:43 | 50.29435 | 10.37132 | 37809 ft | 463 kts | 311° |
| 2026-05-05 23:44 | 50.33941 | 10.29936 | 37802 ft | 463 kts | 311° |
| 2026-05-05 23:44 | 50.38290 | 10.22527 | 37812 ft | 462 kts | 307° |
| 2026-05-05 23:45 | 50.42444 | 10.14841 | 37809 ft | 462 kts | 307° |
| 2026-05-05 23:45 | 50.46590 | 10.07120 | 37808 ft | 463 kts | 307° |
| 2026-05-05 23:46 | 50.50761 | 9.99406 | 37810 ft | 464 kts | 307° |
| 2026-05-05 23:46 | 50.54953 | 9.91672 | 37799 ft | 465 kts | 307° |
| 2026-05-05 23:47 | 50.59139 | 9.83935 | 37796 ft | 465 kts | 307° |
| 2026-05-05 23:47 | 50.63300 | 9.76217 | 37797 ft | 465 kts | 307° |
| 2026-05-05 23:48 | 50.67511 | 9.68383 | 37802 ft | 466 kts | 307° |
| 2026-05-05 23:48 | 50.71694 | 9.60574 | 37792 ft | 466 kts | 307° |
| 2026-05-05 23:49 | 50.75866 | 9.52764 | 37792 ft | 465 kts | 307° |
| 2026-05-05 23:49 | 50.80030 | 9.44945 | 37813 ft | 465 kts | 307° |
| 2026-05-05 23:50 | 50.84189 | 9.37111 | 37803 ft | 465 kts | 307° |
| 2026-05-05 23:50 | 50.88347 | 9.29254 | 37791 ft | 465 kts | 307° |
| 2026-05-05 23:51 | 50.92483 | 9.21416 | 37795 ft | 464 kts | 307° |
| 2026-05-05 23:51 | 50.96584 | 9.13622 | 37794 ft | 463 kts | 307° |
| 2026-05-05 23:52 | 51.00728 | 9.05719 | 37794 ft | 462 kts | 307° |
| 2026-05-05 23:52 | 51.04803 | 8.97925 | 37790 ft | 462 kts | 307° |
| 2026-05-05 23:53 | 51.08898 | 8.90067 | 37796 ft | 461 kts | 307° |
| 2026-05-05 23:53 | 51.12988 | 8.82199 | 37791 ft | 461 kts | 307° |
| 2026-05-05 23:54 | 51.17035 | 8.74281 | 37790 ft | 461 kts | 306° |
| 2026-05-05 23:54 | 51.21050 | 8.66306 | 37790 ft | 461 kts | 306° |
| 2026-05-05 23:55 | 51.23057 | 8.62315 | 37623 ft | 464 kts | 306° |
| 2026-05-05 23:55 | 51.24431 | 8.59581 | 37221 ft | 468 kts | 306° |
| 2026-05-05 23:55 | 51.27041 | 8.54147 | 36445 ft | 464 kts | 301° |
| 2026-05-05 23:55 | 51.28750 | 8.49818 | 35867 ft | 461 kts | 298° |
| 2026-05-05 23:56 | 51.30394 | 8.45398 | 35180 ft | 463 kts | 298° |
| 2026-05-05 23:56 | 51.32017 | 8.40923 | 34318 ft | 469 kts | 298° |
| 2026-05-05 23:56 | 51.33117 | 8.37854 | 33695 ft | 474 kts | 298° |
| 2026-05-05 23:56 | 51.34736 | 8.33293 | 32723 ft | 480 kts | 298° |
| 2026-05-05 23:57 | 51.36388 | 8.28576 | 32007 ft | 479 kts | 298° |
| 2026-05-05 23:57 | 51.37992 | 8.23957 | 31587 ft | 471 kts | 298° |
| 2026-05-05 23:57 | 51.39572 | 8.19375 | 30760 ft | 470 kts | 298° |
| 2026-05-05 23:57 | 51.41128 | 8.14817 | 30219 ft | 465 kts | 297° |
| 2026-05-05 23:58 | 51.42648 | 8.10345 | 29632 ft | 461 kts | 297° |
| 2026-05-05 23:58 | 51.44170 | 8.05849 | 29083 ft | 455 kts | 297° |
| 2026-05-05 23:58 | 51.45663 | 8.01428 | 28580 ft | 449 kts | 297° |
| 2026-05-05 23:58 | 51.47139 | 7.97055 | 28085 ft | 442 kts | 297° |
| 2026-05-05 23:59 | 51.48590 | 7.92753 | 27601 ft | 436 kts | 297° |
| 2026-05-05 23:59 | 51.50024 | 7.88504 | 27142 ft | 430 kts | 297° |
| 2026-05-05 23:59 | 51.51440 | 7.84309 | 26649 ft | 424 kts | 297° |
| 2026-05-05 23:59 | 51.52837 | 7.80171 | 26208 ft | 419 kts | 297° |
| 2026-05-06 00:00 | 51.54217 | 7.76084 | 25758 ft | 414 kts | 297° |
| 2026-05-06 00:00 | 51.55581 | 7.72049 | 25334 ft | 408 kts | 297° |
| 2026-05-06 00:00 | 51.56931 | 7.68069 | 24924 ft | 403 kts | 297° |
| 2026-05-06 00:00 | 51.58267 | 7.64135 | 24547 ft | 398 kts | 297° |
| 2026-05-06 00:01 | 51.59582 | 7.60267 | 24215 ft | 391 kts | 297° |
| 2026-05-06 00:01 | 51.60877 | 7.56455 | 23944 ft | 384 kts | 297° |
| 2026-05-06 00:01 | 51.62142 | 7.52733 | 23679 ft | 377 kts | 297° |
| 2026-05-06 00:01 | 51.63412 | 7.48987 | 22807 ft | 386 kts | 297° |
| 2026-05-06 00:02 | 51.64605 | 7.45085 | 21980 ft | 390 kts | 288° |
| 2026-05-06 00:02 | 51.65283 | 7.40882 | 21413 ft | 384 kts | 280° |
| 2026-05-06 00:02 | 51.65781 | 7.36705 | 20722 ft | 376 kts | 279° |
| 2026-05-06 00:02 | 51.66154 | 7.32557 | 19835 ft | 373 kts | 271° |
| 2026-05-06 00:03 | 51.66252 | 7.28399 | 19120 ft | 368 kts | 268° |
| 2026-05-06 00:03 | 51.65998 | 7.24345 | 18657 ft | 362 kts | 259° |
| 2026-05-06 00:03 | 51.65583 | 7.20360 | 18214 ft | 360 kts | 259° |
| 2026-05-06 00:03 | 51.65224 | 7.16386 | 17719 ft | 358 kts | 261° |
| 2026-05-06 00:04 | 51.64961 | 7.12417 | 17245 ft | 355 kts | 264° |
| 2026-05-06 00:04 | 51.64783 | 7.08485 | 16804 ft | 351 kts | 264° |
| 2026-05-06 00:04 | 51.64662 | 7.04574 | 16369 ft | 348 kts | 266° |
| 2026-05-06 00:04 | 51.64576 | 7.00701 | 15939 ft | 345 kts | 266° |
| 2026-05-06 00:05 | 51.64451 | 6.93039 | 15102 ft | 340 kts | 267° |
| 2026-05-06 00:05 | 51.64398 | 6.89254 | 14679 ft | 337 kts | 268° |
| 2026-05-06 00:05 | 51.64346 | 6.85481 | 14269 ft | 336 kts | 268° |
| 2026-05-06 00:06 | 51.64295 | 6.81741 | 13863 ft | 334 kts | 268° |
| 2026-05-06 00:06 | 51.64243 | 6.78009 | 13421 ft | 333 kts | 268° |
| 2026-05-06 00:06 | 51.64190 | 6.74291 | 12982 ft | 331 kts | 268° |
| 2026-05-06 00:06 | 51.64137 | 6.70600 | 12548 ft | 329 kts | 268° |
| 2026-05-06 00:07 | 51.64082 | 6.66928 | 12130 ft | 327 kts | 268° |
| 2026-05-06 00:07 | 51.64027 | 6.63277 | 11724 ft | 325 kts | 268° |
| 2026-05-06 00:07 | 51.63971 | 6.59649 | 11319 ft | 323 kts | 268° |
| 2026-05-06 00:07 | 51.63914 | 6.56046 | 10927 ft | 321 kts | 268° |
| 2026-05-06 00:08 | 51.63857 | 6.52453 | 10526 ft | 320 kts | 268° |
| 2026-05-06 00:08 | 51.63799 | 6.48914 | 10341 ft | 312 kts | 268° |
| 2026-05-06 00:08 | 51.63742 | 6.45469 | 10189 ft | 303 kts | 268° |
| 2026-05-06 00:08 | 51.63685 | 6.42125 | 10055 ft | 294 kts | 268° |
| 2026-05-06 00:09 | 51.63629 | 6.38876 | 9931 ft | 286 kts | 268° |
| 2026-05-06 00:09 | 51.63574 | 6.35726 | 9769 ft | 280 kts | 268° |
| 2026-05-06 00:09 | 51.63519 | 6.32639 | 9464 ft | 278 kts | 268° |
| 2026-05-06 00:09 | 51.63464 | 6.29541 | 9180 ft | 277 kts | 268° |
| 2026-05-06 00:10 | 51.63406 | 6.26457 | 8891 ft | 275 kts | 269° |
| 2026-05-06 00:10 | 51.63350 | 6.23389 | 8612 ft | 273 kts | 269° |
| 2026-05-06 00:10 | 51.63294 | 6.20338 | 8323 ft | 272 kts | 269° |
| 2026-05-06 00:10 | 51.63237 | 6.17295 | 8045 ft | 271 kts | 269° |
| 2026-05-06 00:11 | 51.63178 | 6.14278 | 7775 ft | 269 kts | 269° |
| 2026-05-06 00:11 | 51.63118 | 6.11267 | 7485 ft | 268 kts | 269° |
| 2026-05-06 00:11 | 51.63018 | 6.08283 | 7207 ft | 267 kts | 266° |
| 2026-05-06 00:11 | 51.62844 | 6.05319 | 6933 ft | 266 kts | 265° |
| 2026-05-06 00:12 | 51.62652 | 6.02367 | 6671 ft | 264 kts | 265° |
| 2026-05-06 00:12 | 51.62460 | 5.99426 | 6382 ft | 264 kts | 264° |
| 2026-05-06 00:12 | 51.62273 | 5.96487 | 6105 ft | 264 kts | 265° |
| 2026-05-06 00:12 | 51.62088 | 5.93557 | 5805 ft | 263 kts | 265° |
| 2026-05-06 00:13 | 51.61904 | 5.90629 | 5525 ft | 262 kts | 266° |
| 2026-05-06 00:13 | 51.61721 | 5.87728 | 5253 ft | 260 kts | 265° |
| 2026-05-06 00:13 | 51.61539 | 5.84838 | 4987 ft | 259 kts | 265° |
| 2026-05-06 00:13 | 51.61358 | 5.81965 | 4735 ft | 258 kts | 265° |
| 2026-05-06 00:14 | 51.61177 | 5.79090 | 4405 ft | 259 kts | 266° |
| 2026-05-06 00:14 | 51.61000 | 5.76223 | 4183 ft | 256 kts | 266° |
| 2026-05-06 00:14 | 51.60824 | 5.73415 | 4068 ft | 249 kts | 265° |
| 2026-05-06 00:14 | 51.60650 | 5.70683 | 3934 ft | 243 kts | 266° |
| 2026-05-06 00:15 | 51.60481 | 5.68042 | 3828 ft | 232 kts | 266° |
| 2026-05-06 00:15 | 51.60319 | 5.65500 | 3721 ft | 225 kts | 267° |
| 2026-05-06 00:15 | 51.60161 | 5.63033 | 3632 ft | 220 kts | 266° |
| 2026-05-06 00:15 | 51.60002 | 5.60547 | 3462 ft | 228 kts | 267° |
| 2026-05-06 00:16 | 51.59839 | 5.58008 | 3242 ft | 229 kts | 266° |
| 2026-05-06 00:16 | 51.59674 | 5.55490 | 3133 ft | 220 kts | 265° |
| 2026-05-06 00:16 | 51.59181 | 5.53230 | 2936 ft | 217 kts | 228° |
| 2026-05-06 00:16 | 51.57994 | 5.51863 | 2781 ft | 206 kts | 211° |
| 2026-05-06 00:17 | 51.56806 | 5.50614 | 2569 ft | 202 kts | 213° |
| 2026-05-06 00:17 | 51.55662 | 5.49373 | 2375 ft | 193 kts | 213° |
| 2026-05-06 00:17 | 51.54591 | 5.48199 | 2198 ft | 181 kts | 214° |
| 2026-05-06 00:17 | 51.53570 | 5.47058 | 1962 ft | 177 kts | 215° |
| 2026-05-06 00:18 | 51.52565 | 5.45930 | 1729 ft | 175 kts | 215° |
| 2026-05-06 00:18 | 51.51588 | 5.44835 | 1483 ft | 165 kts | 216° |
| 2026-05-06 00:18 | 51.50676 | 5.43808 | 1291 ft | 162 kts | 216° |
| 2026-05-06 00:18 | 51.49760 | 5.42781 | 1045 ft | 158 kts | 216° |
| 2026-05-06 00:19 | 51.48889 | 5.41806 | 802 ft | 149 kts | 217° |
| 2026-05-06 00:19 | 51.48058 | 5.40873 | 640 ft | 142 kts | 217° |
| 2026-05-06 00:19 | 51.47255 | 5.39966 | 432 ft | 140 kts | 217° |
| 2026-05-06 00:19 | 51.46461 | 5.39075 | 235 ft | 139 kts | 216° |
| 2026-05-06 00:20 | 51.45674 | 5.38195 | 84 ft | 136 kts | 217° |
| 2026-05-06 00:20 | 51.45002 | 5.37440 | 69 ft | 91 kts | 215° |
| 2026-05-06 00:20 | 51.44733 | 5.37117 | 72 ft | 13 kts | 254° |
| 2026-05-06 00:20 | 51.44772 | 5.37015 | 67 ft | 11 kts | 316° |
| 2026-05-06 00:21 | 51.44831 | 5.36972 | 72 ft | 10 kts | 21° |
| 2026-05-06 00:21 | 51.44887 | 5.37030 | 66 ft | 9 kts | 36° |
| 2026-05-06 00:21 | 51.44944 | 5.37096 | 70 ft | 11 kts | 35° |
| 2026-05-06 00:21 | 51.45016 | 5.37173 | 70 ft | 14 kts | 33° |
| 2026-05-06 00:22 | 51.45110 | 5.37279 | 68 ft | 19 kts | 36° |
| 2026-05-06 00:22 | 51.45228 | 5.37410 | 69 ft | 22 kts | 34° |
| 2026-05-06 00:22 | 51.45354 | 5.37551 | 72 ft | 22 kts | 34° |
| 2026-05-06 00:22 | 51.45478 | 5.37690 | 74 ft | 21 kts | 36° |
| 2026-05-06 00:23 | 51.45598 | 5.37826 | 69 ft | 21 kts | 34° |
| 2026-05-06 00:23 | 51.45714 | 5.37956 | 72 ft | 20 kts | 35° |
| 2026-05-06 00:23 | 51.45828 | 5.38084 | 72 ft | 20 kts | 35° |
| 2026-05-06 00:23 | 51.45949 | 5.38218 | 74 ft | 22 kts | 34° |
| 2026-05-06 00:24 | 51.46069 | 5.38352 | 70 ft | 21 kts | 34° |
| 2026-05-06 00:24 | 51.46165 | 5.38473 | 69 ft | 15 kts | 60° |
| 2026-05-06 00:24 | 51.46132 | 5.38620 | 66 ft | 16 kts | 126° |
| 2026-05-06 00:24 | 51.46065 | 5.38773 | 74 ft | 17 kts | 125° |
| 2026-05-06 00:25 | 51.46002 | 5.38916 | 66 ft | 16 kts | 125° |
| 2026-05-06 00:25 | 51.45944 | 5.38990 | 72 ft | 11 kts | 179° |
| 2026-05-06 00:25 | 51.45895 | 5.38970 | 74 ft | 5 kts | 151° |
| 2026-05-06 00:25 | 51.45869 | 5.39026 | 69 ft | 6 kts | 125° |
| 2026-05-06 00:26 | 51.45859 | 5.39048 | 66 ft | 1 kts | 125° |
| 2026-05-06 00:26 | 51.45856 | 5.39056 | 66 ft | 0 kts | 125° |